Cse Prosperity Expr. — 3EES5 — position and weather

sailwx.info

Track history (hours):
 
Tides and Currents Weather Stations Pressure Air Temp Water Temp Dewpoint Dewpoint Depression Visibility Wind Speed Wind Dir Waves Ship Positions

Cse Prosperity Expr.

Last reported at 2015-Jan-26 13:33 UTC. Time now 2015-Jan-26 14:29 UTC.
Position N 34°14' E 135°07'.

Length 168 m; draft 5.4 m.

Type: Cargo ship. MMSI: 371801000.

Date/timePositionNaut miles runAvg speedWind from/ knotsBaromVisibWave heightAir tempDewpointWater temp
2015-Jan-26 13:33N 34°14' E 135°07'0 0.0
2015-Jan-26 12:34N 34°14' E 135°07'0 0.0
2015-Jan-26 11:34N 34°14' E 135°07'0 0.0
2015-Jan-26 10:33N 34°14' E 135°07'0 0.0
2015-Jan-26 09:31N 34°14' E 135°07'0 0.0
2015-Jan-26 08:33N 34°14' E 135°07'2 1.7
2015-Jan-26 07:34N 34°14' E 135°05'0 0.0
2015-Jan-26 06:32N 34°14' E 135°05'0 0.0
2015-Jan-26 05:32N 34°14' E 135°05'0 0.0
2015-Jan-26 04:32N 34°14' E 135°05'0 0.1
2015-Jan-26 03:32N 34°14' E 135°05'0 0.1
2015-Jan-26 02:32N 34°14' E 135°05'0 0.1
2015-Jan-26 01:32N 34°14' E 135°05'0 0.0
2015-Jan-26 00:32N 34°14' E 135°05'0 0.0
2015-Jan-25 23:32N 34°14' E 135°05'0 0.1
2015-Jan-25 22:29N 34°14' E 135°05'0 0.0
2015-Jan-25 21:32N 34°14' E 135°05'0 0.0
2015-Jan-25 20:32N 34°14' E 135°05'0 0.0
2015-Jan-25 19:32N 34°14' E 135°05'0 0.0
2015-Jan-25 18:32N 34°14' E 135°05'0 0.0
2015-Jan-25 17:32N 34°14' E 135°05'0 0.0
2015-Jan-25 16:29N 34°14' E 135°05'0 0.0
2015-Jan-25 15:32N 34°14' E 135°05'0 0.0
2015-Jan-25 14:32N 34°14' E 135°05'0 0.0
2015-Jan-25 13:32N 34°14' E 135°05'0 0.0
2015-Jan-25 12:32N 34°14' E 135°05'0 0.1
2015-Jan-25 11:32N 34°14' E 135°05'0 0.0
2015-Jan-25 10:29N 34°14' E 135°05'0 0.1
2015-Jan-25 09:32N 34°14' E 135°05'0 0.1
2015-Jan-25 08:32N 34°14' E 135°05'4 3.7
2015-Jan-25 07:33N 34°11' E 135°04'  
2015-Jan-22 03:32N 22°47' E 120°06'1313.0
2015-Jan-22 02:33N 22°38' E 120°14'4 3.5
2015-Jan-22 01:32N 22°36' E 120°18'0 0.0
2015-Jan-22 00:26N 22°36' E 120°18'0 0.0
2015-Jan-21 23:26N 22°36' E 120°18'0 0.0
2015-Jan-21 22:50N 22°36' E 120°18'0 0.0
2015-Jan-21 22:44N 22°36' E 120°18'0 0.0
2015-Jan-21 22:32N 22°36' E 120°18'0 0.0
2015-Jan-21 21:32N 22°36' E 120°18'0 0.0
2015-Jan-21 19:32N 22°36' E 120°18'0 0.0
2015-Jan-21 18:32N 22°36' E 120°18'0 0.0
2015-Jan-21 17:32N 22°36' E 120°18'0 0.0
2015-Jan-21 16:32N 22°36' E 120°18'0 0.0
2015-Jan-21 15:26N 22°36' E 120°18'0 0.0
2015-Jan-21 14:32N 22°36' E 120°18'0 0.0
2015-Jan-21 13:32N 22°36' E 120°18'0 0.0
2015-Jan-21 12:32N 22°36' E 120°18'0 0.0
2015-Jan-21 11:20N 22°36' E 120°18'0 0.0
2015-Jan-21 10:20N 22°36' E 120°18'0 0.0
2015-Jan-21 09:14N 22°36' E 120°18'0 0.0
2015-Jan-21 08:26N 22°36' E 120°18'0 0.0
2015-Jan-21 07:26N 22°36' E 120°18'0 0.0
2015-Jan-21 06:20N 22°36' E 120°18'0 0.0
2015-Jan-21 05:32N 22°36' E 120°18'0 0.0
2015-Jan-21 04:32N 22°36' E 120°18'0 0.0
2015-Jan-21 03:14N 22°36' E 120°18'0 0.0
2015-Jan-21 02:32N 22°36' E 120°18'4 4.2
2015-Jan-21 01:33N 22°37' E 120°13'9 9.2
2015-Jan-21 00:33N 22°45' E 120°07'  
2015-Jan-17 06:33N 33°59' E 134°58'1313.2
2015-Jan-17 05:33N 34°11' E 135°04'4 3.8
2015-Jan-17 04:28N 34°14' E 135°07'0 0.0
2015-Jan-17 03:28N 34°14' E 135°07'0 0.0
2015-Jan-17 02:28N 34°14' E 135°07'0 0.0
2015-Jan-17 01:28N 34°14' E 135°07'0 0.0
2015-Jan-17 00:28N 34°14' E 135°07'0 0.0
2015-Jan-16 23:28N 34°14' E 135°07'0 0.0
2015-Jan-16 22:31N 34°14' E 135°07'0 0.0
2015-Jan-16 21:28N 34°14' E 135°07'0 0.0
2015-Jan-16 20:31N 34°14' E 135°07'0 0.0
2015-Jan-16 19:31N 34°14' E 135°07'0 0.0
2015-Jan-16 18:31N 34°14' E 135°07'0 0.0
2015-Jan-16 17:28N 34°14' E 135°07'0 0.0
2015-Jan-16 16:31N 34°14' E 135°07'0 0.0
2015-Jan-16 15:31N 34°14' E 135°07'0 0.0
2015-Jan-16 14:31N 34°14' E 135°07'  
Track history (hours):
 
Tides and Currents Weather Stations Pressure Air Temp Water Temp Dewpoint Dewpoint Depression Visibility Wind Speed Wind Dir Waves Ship Positions

Cse Prosperity Expr.

Last reported at 2015-Jan-26 13:33 UTC. Time now 2015-Jan-26 14:29 UTC.
Position N 34°14' E 135°07'.

Length 168 m; draft 5.4 m.

Type: Cargo ship. MMSI: 371801000.

Date/timePositionNaut miles runAvg speedWind from/ knotsBaromVisibWave heightAir tempDewpointWater temp
2015-Jan-26 13:33N 34°14' E 135°07'0 0.0
2015-Jan-26 12:34N 34°14' E 135°07'0 0.0
2015-Jan-26 11:34N 34°14' E 135°07'0 0.0
2015-Jan-26 10:33N 34°14' E 135°07'0 0.0
2015-Jan-26 09:31N 34°14' E 135°07'0 0.0
2015-Jan-26 08:33N 34°14' E 135°07'2 1.7
2015-Jan-26 07:34N 34°14' E 135°05'0 0.0
2015-Jan-26 06:32N 34°14' E 135°05'0 0.0
2015-Jan-26 05:32N 34°14' E 135°05'0 0.0
2015-Jan-26 04:32N 34°14' E 135°05'0 0.1
2015-Jan-26 03:32N 34°14' E 135°05'0 0.1
2015-Jan-26 02:32N 34°14' E 135°05'0 0.1
2015-Jan-26 01:32N 34°14' E 135°05'0 0.0
2015-Jan-26 00:32N 34°14' E 135°05'0 0.0
2015-Jan-25 23:32N 34°14' E 135°05'0 0.1
2015-Jan-25 22:29N 34°14' E 135°05'0 0.0
2015-Jan-25 21:32N 34°14' E 135°05'0 0.0
2015-Jan-25 20:32N 34°14' E 135°05'0 0.0
2015-Jan-25 19:32N 34°14' E 135°05'0 0.0
2015-Jan-25 18:32N 34°14' E 135°05'0 0.0
2015-Jan-25 17:32N 34°14' E 135°05'0 0.0
2015-Jan-25 16:29N 34°14' E 135°05'0 0.0
2015-Jan-25 15:32N 34°14' E 135°05'0 0.0
2015-Jan-25 14:32N 34°14' E 135°05'0 0.0
2015-Jan-25 13:32N 34°14' E 135°05'0 0.0
2015-Jan-25 12:32N 34°14' E 135°05'0 0.1
2015-Jan-25 11:32N 34°14' E 135°05'0 0.0
2015-Jan-25 10:29N 34°14' E 135°05'0 0.1
2015-Jan-25 09:32N 34°14' E 135°05'0 0.1
2015-Jan-25 08:32N 34°14' E 135°05'4 3.7
2015-Jan-25 07:33N 34°11' E 135°04'  
2015-Jan-22 03:32N 22°47' E 120°06'1313.0
2015-Jan-22 02:33N 22°38' E 120°14'4 3.5
2015-Jan-22 01:32N 22°36' E 120°18'0 0.0
2015-Jan-22 00:26N 22°36' E 120°18'0 0.0
2015-Jan-21 23:26N 22°36' E 120°18'0 0.0
2015-Jan-21 22:50N 22°36' E 120°18'0 0.0
2015-Jan-21 22:44N 22°36' E 120°18'0 0.0
2015-Jan-21 22:32N 22°36' E 120°18'0 0.0
2015-Jan-21 21:32N 22°36' E 120°18'0 0.0
2015-Jan-21 19:32N 22°36' E 120°18'0 0.0
2015-Jan-21 18:32N 22°36' E 120°18'0 0.0
2015-Jan-21 17:32N 22°36' E 120°18'0 0.0
2015-Jan-21 16:32N 22°36' E 120°18'0 0.0
2015-Jan-21 15:26N 22°36' E 120°18'0 0.0
2015-Jan-21 14:32N 22°36' E 120°18'0 0.0
2015-Jan-21 13:32N 22°36' E 120°18'0 0.0
2015-Jan-21 12:32N 22°36' E 120°18'0 0.0
2015-Jan-21 11:20N 22°36' E 120°18'0 0.0
2015-Jan-21 10:20N 22°36' E 120°18'0 0.0
2015-Jan-21 09:14N 22°36' E 120°18'0 0.0
2015-Jan-21 08:26N 22°36' E 120°18'0 0.0
2015-Jan-21 07:26N 22°36' E 120°18'0 0.0
2015-Jan-21 06:20N 22°36' E 120°18'0 0.0
2015-Jan-21 05:32N 22°36' E 120°18'0 0.0
2015-Jan-21 04:32N 22°36' E 120°18'0 0.0
2015-Jan-21 03:14N 22°36' E 120°18'0 0.0
2015-Jan-21 02:32N 22°36' E 120°18'4 4.2
2015-Jan-21 01:33N 22°37' E 120°13'9 9.2
2015-Jan-21 00:33N 22°45' E 120°07'  
2015-Jan-17 06:33N 33°59' E 134°58'1313.2
2015-Jan-17 05:33N 34°11' E 135°04'4 3.8
2015-Jan-17 04:28N 34°14' E 135°07'0 0.0
2015-Jan-17 03:28N 34°14' E 135°07'0 0.0
2015-Jan-17 02:28N 34°14' E 135°07'0 0.0
2015-Jan-17 01:28N 34°14' E 135°07'0 0.0
2015-Jan-17 00:28N 34°14' E 135°07'0 0.0
2015-Jan-16 23:28N 34°14' E 135°07'0 0.0
2015-Jan-16 22:31N 34°14' E 135°07'0 0.0
2015-Jan-16 21:28N 34°14' E 135°07'0 0.0
2015-Jan-16 20:31N 34°14' E 135°07'0 0.0
2015-Jan-16 19:31N 34°14' E 135°07'0 0.0
2015-Jan-16 18:31N 34°14' E 135°07'0 0.0
2015-Jan-16 17:28N 34°14' E 135°07'0 0.0
2015-Jan-16 16:31N 34°14' E 135°07'0 0.0
2015-Jan-16 15:31N 34°14' E 135°07'0 0.0
2015-Jan-16 14:31N 34°14' E 135°07'  

Dump ship's entire track history